sensor_id;sensor_type;location;lat;lon;timestamp;pressure;altitude;pressure_sealevel;temperature;humidity
58843;BME280;44614;54.356;10.100;2023-05-07T00:01:49;102068.03;;;6.98;100.00
58843;BME280;44614;54.356;10.100;2023-05-07T00:04:14;102072.50;;;6.99;100.00
58843;BME280;44614;54.356;10.100;2023-05-07T00:06:39;102068.91;;;6.98;100.00
58843;BME280;44614;54.356;10.100;2023-05-07T00:09:06;102054.69;;;6.87;100.00
58843;BME280;44614;54.356;10.100;2023-05-07T00:11:32;102079.47;;;7.01;100.00
58843;BME280;44614;54.356;10.100;2023-05-07T00:13:57;102079.47;;;7.01;100.00
58843;BME280;44614;54.356;10.100;2023-05-07T00:16:22;102067.50;;;6.94;100.00
58843;BME280;44614;54.356;10.100;2023-05-07T00:18:48;102067.53;;;7.02;100.00
58843;BME280;44614;54.356;10.100;2023-05-07T00:21:13;102075.75;;;7.02;100.00
58843;BME280;44614;54.356;10.100;2023-05-07T00:23:38;102071.97;;;7.03;100.00
58843;BME280;44614;54.356;10.100;2023-05-07T00:26:04;102066.66;;;7.02;100.00
58843;BME280;44614;54.356;10.100;2023-05-07T00:28:29;102069.91;;;7.05;100.00
58843;BME280;44614;54.356;10.100;2023-05-07T00:30:55;102070.94;;;7.04;100.00
58843;BME280;44614;54.356;10.100;2023-05-07T00:33:20;102075.03;;;7.08;100.00
58843;BME280;44614;54.356;10.100;2023-05-07T00:35:46;102075.75;;;7.11;100.00
58843;BME280;44614;54.356;10.100;2023-05-07T00:38:11;102071.97;;;7.12;100.00
58843;BME280;44614;54.356;10.100;2023-05-07T00:40:37;102077.44;;;7.12;100.00
58843;BME280;44614;54.356;10.100;2023-05-07T00:43:02;102066.16;;;7.15;100.00
58843;BME280;44614;54.356;10.100;2023-05-07T00:45:28;102069.56;;;7.17;100.00
58843;BME280;44614;54.356;10.100;2023-05-07T00:47:58;102064.81;;;7.19;100.00
58843;BME280;44614;54.356;10.100;2023-05-07T00:50:25;102065.47;;;7.21;100.00
58843;BME280;44614;54.356;10.100;2023-05-07T00:52:51;102067.19;;;7.22;100.00
58843;BME280;44614;54.356;10.100;2023-05-07T00:55:17;102056.09;;;7.23;100.00
58843;BME280;44614;54.356;10.100;2023-05-07T00:57:43;102059.53;;;7.25;100.00
58843;BME280;44614;54.356;10.100;2023-05-07T01:00:09;102062.91;;;7.27;100.00
58843;BME280;44614;54.356;10.100;2023-05-07T01:02:35;102061.03;;;7.28;100.00
58843;BME280;44614;54.356;10.100;2023-05-07T01:05:01;102023.97;;;7.09;100.00
58843;BME280;44614;54.356;10.100;2023-05-07T01:07:28;102059.00;;;7.30;100.00
58843;BME280;44614;54.356;10.100;2023-05-07T01:09:54;102055.22;;;7.31;100.00
58843;BME280;44614;54.356;10.100;2023-05-07T01:12:20;102070.44;;;7.33;100.00
58843;BME280;44614;54.356;10.100;2023-05-07T01:14:45;102073.16;;;7.33;100.00
58843;BME280;44614;54.356;10.100;2023-05-07T01:17:11;102056.59;;;7.35;100.00
58843;BME280;44614;54.356;10.100;2023-05-07T01:19:36;102061.03;;;7.36;100.00
58843;BME280;44614;54.356;10.100;2023-05-07T01:22:04;102040.03;;;7.20;100.00
58843;BME280;44614;54.356;10.100;2023-05-07T01:24:32;102062.75;;;7.37;100.00
58843;BME280;44614;54.356;10.100;2023-05-07T01:26:58;102057.28;;;7.37;100.00
58843;BME280;44614;54.356;10.100;2023-05-07T01:29:23;102064.44;;;7.38;100.00
58843;BME280;44614;54.356;10.100;2023-05-07T01:31:50;102049.09;;;7.37;100.00
58843;BME280;44614;54.356;10.100;2023-05-07T01:34:17;102054.56;;;7.37;100.00
58843;BME280;44614;54.356;10.100;2023-05-07T01:36:44;102023.47;;;7.22;100.00
58843;BME280;44614;54.356;10.100;2023-05-07T01:39:10;102048.91;;;7.39;100.00
58843;BME280;44614;54.356;10.100;2023-05-07T01:41:36;102063.41;;;7.39;100.00
58843;BME280;44614;54.356;10.100;2023-05-07T01:44:03;102056.44;;;7.37;100.00
58843;BME280;44614;54.356;10.100;2023-05-07T01:46:29;102060.53;;;7.41;100.00
58843;BME280;44614;54.356;10.100;2023-05-07T01:48:56;102046.34;;;7.37;100.00
58843;BME280;44614;54.356;10.100;2023-05-07T01:51:21;102058.97;;;7.38;100.00
58843;BME280;44614;54.356;10.100;2023-05-07T01:53:47;102050.47;;;7.33;100.00
58843;BME280;44614;54.356;10.100;2023-05-07T01:56:17;102061.53;;;7.40;100.00
58843;BME280;44614;54.356;10.100;2023-05-07T01:58:42;102058.97;;;7.38;100.00
58843;BME280;44614;54.356;10.100;2023-05-07T02:01:08;102056.44;;;7.37;100.00
58843;BME280;44614;54.356;10.100;2023-05-07T02:03:33;102054.56;;;7.37;100.00
58843;BME280;44614;54.356;10.100;2023-05-07T02:05:58;102066.16;;;7.39;100.00
58843;BME280;44614;54.356;10.100;2023-05-07T02:08:23;102058.78;;;7.40;100.00
58843;BME280;44614;54.356;10.100;2023-05-07T02:10:49;102067.00;;;7.40;100.00
58843;BME280;44614;54.356;10.100;2023-05-07T02:13:16;102068.72;;;7.41;100.00
58843;BME280;44614;54.356;10.100;2023-05-07T02:15:41;102067.84;;;7.40;100.00
58843;BME280;44614;54.356;10.100;2023-05-07T02:18:08;102073.50;;;7.39;100.00
58843;BME280;44614;54.356;10.100;2023-05-07T02:20:34;102087.34;;;7.37;100.00
58843;BME280;44614;54.356;10.100;2023-05-07T02:23:00;102086.31;;;7.38;100.00
58843;BME280;44614;54.356;10.100;2023-05-07T02:25:25;102079.16;;;7.37;100.00
58843;BME280;44614;54.356;10.100;2023-05-07T02:27:51;102089.03;;;7.38;100.00
58843;BME280;44614;54.356;10.100;2023-05-07T02:30:16;102088.19;;;7.38;100.00
58843;BME280;44614;54.356;10.100;2023-05-07T02:32:42;102080.84;;;7.38;100.00
58843;BME280;44614;54.356;10.100;2023-05-07T02:35:07;102086.31;;;7.38;100.00
58843;BME280;44614;54.356;10.100;2023-05-07T02:37:33;102087.16;;;7.39;100.00
58843;BME280;44614;54.356;10.100;2023-05-07T02:39:58;102086.97;;;7.40;100.00
58843;BME280;44614;54.356;10.100;2023-05-07T02:42:23;102059.00;;;7.22;100.00
58843;BME280;44614;54.356;10.100;2023-05-07T02:44:49;102080.66;;;7.40;100.00
58843;BME280;44614;54.356;10.100;2023-05-07T02:47:15;102078.44;;;7.35;100.00
58843;BME280;44614;54.356;10.100;2023-05-07T02:49:40;102088.38;;;7.44;100.00
58843;BME280;44614;54.356;10.100;2023-05-07T02:52:06;102094.00;;;7.43;100.00
58843;BME280;44614;54.356;10.100;2023-05-07T02:54:32;102078.31;;;7.37;100.00
58843;BME280;44614;54.356;10.100;2023-05-07T02:56:57;102102.03;;;7.44;100.00
58843;BME280;44614;54.356;10.100;2023-05-07T02:59:23;102089.38;;;7.43;100.00
58843;BME280;44614;54.356;10.100;2023-05-07T03:01:49;102082.22;;;7.42;100.00
58843;BME280;44614;54.356;10.100;2023-05-07T03:04:14;102089.72;;;7.48;100.00
58843;BME280;44614;54.356;10.100;2023-05-07T03:06:40;102088.88;;;7.48;100.00
58843;BME280;44614;54.356;10.100;2023-05-07T03:09:05;102093.31;;;7.49;100.00
58843;BME280;44614;54.356;10.100;2023-05-07T03:11:31;102085.97;;;7.49;100.00
58843;BME280;44614;54.356;10.100;2023-05-07T03:13:56;102088.69;;;7.49;100.00
58843;BME280;44614;54.356;10.100;2023-05-07T03:16:21;102092.97;;;7.52;100.00
58843;BME280;44614;54.356;10.100;2023-05-07T03:18:47;102092.78;;;7.53;100.00
58843;BME280;44614;54.356;10.100;2023-05-07T03:21:12;102091.94;;;7.53;100.00
58843;BME280;44614;54.356;10.100;2023-05-07T03:23:38;102078.28;;;7.53;100.00
58843;BME280;44614;54.356;10.100;2023-05-07T03:26:03;102079.13;;;7.53;100.00
58843;BME280;44614;54.356;10.100;2023-05-07T03:28:28;102061.22;;;7.35;100.00
58843;BME280;44614;54.356;10.100;2023-05-07T03:30:54;102087.31;;;7.53;100.00
58843;BME280;44614;54.356;10.100;2023-05-07T03:33:19;102090.91;;;7.54;100.00
58843;BME280;44614;54.356;10.100;2023-05-07T03:35:44;102087.13;;;7.55;100.00
58843;BME280;44614;54.356;10.100;2023-05-07T03:38:10;102088.03;;;7.55;100.00
58843;BME280;44614;54.356;10.100;2023-05-07T03:40:35;102077.25;;;7.46;100.00
58843;BME280;44614;54.356;10.100;2023-05-07T03:43:00;102090.75;;;7.55;100.00
58843;BME280;44614;54.356;10.100;2023-05-07T03:45:26;102094.50;;;7.54;100.00
58843;BME280;44614;54.356;10.100;2023-05-07T03:47:51;102092.59;;;7.55;100.00
58843;BME280;44614;54.356;10.100;2023-05-07T03:50:16;102087.50;;;7.52;100.00
58843;BME280;44614;54.356;10.100;2023-05-07T03:52:42;102088.88;;;7.56;100.00
58843;BME280;44614;54.356;10.100;2023-05-07T03:55:08;102072.97;;;7.43;100.00
58843;BME280;44614;54.356;10.100;2023-05-07T03:57:33;102095.19;;;7.56;100.00
58843;BME280;44614;54.356;10.100;2023-05-07T03:59:58;102096.03;;;7.57;100.00
58843;BME280;44614;54.356;10.100;2023-05-07T04:02:24;102098.59;;;7.58;100.00
58843;BME280;44614;54.356;10.100;2023-05-07T04:04:49;102060.34;;;7.34;100.00
58843;BME280;44614;54.356;10.100;2023-05-07T04:07:15;102087.00;;;7.48;100.00
58843;BME280;44614;54.356;10.100;2023-05-07T04:09:40;102085.78;;;7.51;100.00
58843;BME280;44614;54.356;10.100;2023-05-07T04:12:06;102098.94;;;7.64;100.00
58843;BME280;44614;54.356;10.100;2023-05-07T04:14:31;102099.94;;;7.63;100.00
58843;BME280;44614;54.356;10.100;2023-05-07T04:16:58;102071.78;;;7.46;100.00
58843;BME280;44614;54.356;10.100;2023-05-07T04:19:24;102100.31;;;7.60;100.00
58843;BME280;44614;54.356;10.100;2023-05-07T04:21:49;102105.78;;;7.60;100.00
58843;BME280;44614;54.356;10.100;2023-05-07T04:24:15;102106.44;;;7.62;100.00
58843;BME280;44614;54.356;10.100;2023-05-07T04:26:40;102110.03;;;7.62;100.00
58843;BME280;44614;54.356;10.100;2023-05-07T04:29:06;102117.22;;;7.63;100.00
58843;BME280;44614;54.356;10.100;2023-05-07T04:31:32;102102.84;;;7.61;100.00
58843;BME280;44614;54.356;10.100;2023-05-07T04:33:57;102121.81;;;7.63;100.00
58843;BME280;44614;54.356;10.100;2023-05-07T04:36:22;102122.50;;;7.65;100.00
58843;BME280;44614;54.356;10.100;2023-05-07T04:38:48;102119.78;;;7.65;100.00
58843;BME280;44614;54.356;10.100;2023-05-07T04:41:13;102125.75;;;7.68;100.00
58843;BME280;44614;54.356;10.100;2023-05-07T04:43:38;102135.50;;;7.71;100.00
58843;BME280;44614;54.356;10.100;2023-05-07T04:46:05;102126.25;;;7.72;100.00
58843;BME280;44614;54.356;10.100;2023-05-07T04:48:30;102125.94;;;7.75;100.00
58843;BME280;44614;54.356;10.100;2023-05-07T04:50:55;102128.81;;;7.73;100.00
58843;BME280;44614;54.356;10.100;2023-05-07T04:53:21;102130.03;;;7.71;100.00
58843;BME280;44614;54.356;10.100;2023-05-07T04:58:13;102138.56;;;7.76;100.00
58843;BME280;44614;54.356;10.100;2023-05-07T05:00:38;102140.25;;;7.77;100.00
58843;BME280;44614;54.356;10.100;2023-05-07T05:03:05;102131.72;;;7.72;100.00
58843;BME280;44614;54.356;10.100;2023-05-07T05:05:31;102130.16;;;7.77;100.00
58843;BME280;44614;54.356;10.100;2023-05-07T05:07:56;102139.91;;;7.80;100.00
58843;BME280;44614;54.356;10.100;2023-05-07T05:10:22;102134.44;;;7.80;100.00
58843;BME280;44614;54.356;10.100;2023-05-07T05:12:50;102135.31;;;7.80;100.00
58843;BME280;44614;54.356;10.100;2023-05-07T05:15:15;102131.19;;;7.85;100.00
58843;BME280;44614;54.356;10.100;2023-05-07T05:17:40;102123.19;;;7.75;100.00
58843;BME280;44614;54.356;10.100;2023-05-07T05:20:06;102137.84;;;7.82;100.00
58843;BME280;44614;54.356;10.100;2023-05-07T05:22:32;102136.84;;;7.83;100.00
58843;BME280;44614;54.356;10.100;2023-05-07T05:24:57;102144.72;;;7.86;100.00
58843;BME280;44614;54.356;10.100;2023-05-07T05:27:23;102142.97;;;7.85;100.00
58843;BME280;44614;54.356;10.100;2023-05-07T05:29:48;102142.63;;;7.88;100.00
58843;BME280;44614;54.356;10.100;2023-05-07T05:32:13;102139.72;;;7.90;100.00
58843;BME280;44614;54.356;10.100;2023-05-07T05:34:39;102065.13;;;7.40;100.00
58843;BME280;44614;54.356;10.100;2023-05-07T05:37:04;102158.19;;;7.88;100.00
58843;BME280;44614;54.356;10.100;2023-05-07T05:39:29;102149.81;;;7.89;100.00
58843;BME280;44614;54.356;10.100;2023-05-07T05:41:55;102152.53;;;7.89;100.00
58843;BME280;44614;54.356;10.100;2023-05-07T05:44:20;102149.81;;;7.89;100.00
58843;BME280;44614;54.356;10.100;2023-05-07T05:46:45;102156.63;;;7.93;100.00
58843;BME280;44614;54.356;10.100;2023-05-07T05:49:11;102144.53;;;7.88;100.00
58843;BME280;44614;54.356;10.100;2023-05-07T05:51:36;102154.25;;;7.98;100.00
58843;BME280;44614;54.356;10.100;2023-05-07T05:54:01;102153.91;;;8.01;100.00
58843;BME280;44614;54.356;10.100;2023-05-07T05:56:27;102159.50;;;8.08;100.00
58843;BME280;44614;54.356;10.100;2023-05-07T05:58:52;102151.00;;;8.03;100.00
58843;BME280;44614;54.356;10.100;2023-05-07T06:01:18;102148.06;;;8.04;100.00
58843;BME280;44614;54.356;10.100;2023-05-07T06:03:44;102145.69;;;8.10;100.00
58843;BME280;44614;54.356;10.100;2023-05-07T06:06:09;102156.41;;;8.19;100.00
58843;BME280;44614;54.356;10.100;2023-05-07T06:08:35;102155.22;;;8.22;100.00
58843;BME280;44614;54.356;10.100;2023-05-07T06:11:01;102162.03;;;8.26;100.00
58843;BME280;44614;54.356;10.100;2023-05-07T06:13:27;102156.91;;;8.23;100.00
58843;BME280;44614;54.356;10.100;2023-05-07T06:15:53;102165.81;;;8.25;100.00
58843;BME280;44614;54.356;10.100;2023-05-07T06:18:18;102155.22;;;8.22;100.00
58843;BME280;44614;54.356;10.100;2023-05-07T06:20:44;102158.78;;;8.30;100.00
58843;BME280;44614;54.356;10.100;2023-05-07T06:23:09;102162.00;;;8.34;100.00
58843;BME280;44614;54.356;10.100;2023-05-07T06:25:34;102168.72;;;8.40;100.00
58843;BME280;44614;54.356;10.100;2023-05-07T06:28:00;102162.19;;;8.41;100.00
58843;BME280;44614;54.356;10.100;2023-05-07T06:30:25;102142.19;;;8.40;100.00
58843;BME280;44614;54.356;10.100;2023-05-07T06:32:52;102165.59;;;8.51;100.00
58843;BME280;44614;54.356;10.100;2023-05-07T06:35:17;102164.38;;;8.53;100.00
58843;BME280;44614;54.356;10.100;2023-05-07T06:37:42;102167.44;;;8.59;100.00
58843;BME280;44614;54.356;10.100;2023-05-07T06:40:08;102166.72;;;8.65;100.00
58843;BME280;44614;54.356;10.100;2023-05-07T06:42:35;102163.09;;;8.72;100.00
58843;BME280;44614;54.356;10.100;2023-05-07T06:45:01;102170.91;;;8.84;100.00
58843;BME280;44614;54.356;10.100;2023-05-07T06:47:26;102159.75;;;8.85;100.00
58843;BME280;44614;54.356;10.100;2023-05-07T06:49:51;102167.25;;;8.91;100.00
58843;BME280;44614;54.356;10.100;2023-05-07T06:52:17;102165.72;;;8.89;100.00
58843;BME280;44614;54.356;10.100;2023-05-07T06:54:42;102176.34;;;8.92;100.00
58843;BME280;44614;54.356;10.100;2023-05-07T06:57:08;102147.28;;;8.83;100.00
58843;BME280;44614;54.356;10.100;2023-05-07T06:59:33;102168.75;;;9.02;100.00
58843;BME280;44614;54.356;10.100;2023-05-07T07:01:58;102161.06;;;8.97;100.00
58843;BME280;44614;54.356;10.100;2023-05-07T07:04:24;102164.31;;;9.01;100.00
58843;BME280;44614;54.356;10.100;2023-05-07T07:06:52;102168.56;;;9.03;100.00
58843;BME280;44614;54.356;10.100;2023-05-07T07:09:17;102173.28;;;9.18;100.00
58843;BME280;44614;54.356;10.100;2023-05-07T07:11:42;102164.50;;;9.22;100.00
58843;BME280;44614;54.356;10.100;2023-05-07T07:14:07;102160.34;;;9.49;100.00
58843;BME280;44614;54.356;10.100;2023-05-07T07:16:33;102171.25;;;9.81;99.48
58843;BME280;44614;54.356;10.100;2023-05-07T07:18:58;102172.00;;;9.89;97.67
58843;BME280;44614;54.356;10.100;2023-05-07T07:21:23;102168.50;;;9.95;95.72
58843;BME280;44614;54.356;10.100;2023-05-07T07:23:49;102171.69;;;9.84;95.23
58843;BME280;44614;54.356;10.100;2023-05-07T07:26:14;102180.16;;;9.97;94.26
58843;BME280;44614;54.356;10.100;2023-05-07T07:28:45;102172.88;;;9.90;96.20
58843;BME280;44614;54.356;10.100;2023-05-07T07:31:11;102176.41;;;10.13;97.48
58843;BME280;44614;54.356;10.100;2023-05-07T07:33:36;102179.19;;;10.28;96.97
58843;BME280;44614;54.356;10.100;2023-05-07T07:36:02;102166.41;;;10.35;94.79
58843;BME280;44614;54.356;10.100;2023-05-07T07:38:27;102165.72;;;10.63;94.07
58843;BME280;44614;54.356;10.100;2023-05-07T07:40:53;102175.28;;;10.67;91.07
58843;BME280;44614;54.356;10.100;2023-05-07T07:43:18;102162.50;;;10.59;91.38
58843;BME280;44614;54.356;10.100;2023-05-07T07:45:43;102170.84;;;10.66;91.97
58843;BME280;44614;54.356;10.100;2023-05-07T07:48:09;102176.97;;;10.83;92.96
58843;BME280;44614;54.356;10.100;2023-05-07T07:50:35;102173.19;;;10.84;91.59
58843;BME280;44614;54.356;10.100;2023-05-07T07:53:00;102171.53;;;11.04;90.04
58843;BME280;44614;54.356;10.100;2023-05-07T07:55:26;102168.06;;;11.17;88.32
58843;BME280;44614;54.356;10.100;2023-05-07T07:57:52;102164.53;;;11.23;88.78
58843;BME280;44614;54.356;10.100;2023-05-07T08:00:17;102150.19;;;11.28;89.81
58843;BME280;44614;54.356;10.100;2023-05-07T08:02:43;102179.94;;;11.60;89.82
58843;BME280;44614;54.356;10.100;2023-05-07T08:05:08;102188.44;;;11.65;87.52
58843;BME280;44614;54.356;10.100;2023-05-07T08:07:34;102180.25;;;11.51;87.53
58843;BME280;44614;54.356;10.100;2023-05-07T08:09:59;102165.34;;;11.38;88.35
58843;BME280;44614;54.356;10.100;2023-05-07T08:12:24;102168.47;;;11.35;89.88
58843;BME280;44614;54.356;10.100;2023-05-07T08:14:50;102166.31;;;11.31;89.13
58843;BME280;44614;54.356;10.100;2023-05-07T08:17:15;102181.03;;;11.23;86.55
58843;BME280;44614;54.356;10.100;2023-05-07T08:19:42;102157.84;;;11.32;89.24
58843;BME280;44614;54.356;10.100;2023-05-07T08:22:07;102175.16;;;11.47;89.05
58843;BME280;44614;54.356;10.100;2023-05-07T08:24:33;102148.03;;;11.44;88.78
58843;BME280;44614;54.356;10.100;2023-05-07T08:26:58;102166.97;;;11.54;88.22
58843;BME280;44614;54.356;10.100;2023-05-07T08:29:24;102164.00;;;11.99;87.58
58843;BME280;44614;54.356;10.100;2023-05-07T08:31:49;102165.31;;;12.09;84.01
58843;BME280;44614;54.356;10.100;2023-05-07T08:34:14;102136.59;;;11.90;84.07
58843;BME280;44614;54.356;10.100;2023-05-07T08:36:39;102157.28;;;12.08;86.28
58843;BME280;44614;54.356;10.100;2023-05-07T08:39:06;102161.09;;;12.07;78.84
58843;BME280;44614;54.356;10.100;2023-05-07T08:41:32;102158.78;;;12.10;86.45
58843;BME280;44614;54.356;10.100;2023-05-07T08:43:58;102152.81;;;12.07;85.02
58843;BME280;44614;54.356;10.100;2023-05-07T08:46:25;102167.75;;;11.91;81.59
58843;BME280;44614;54.356;10.100;2023-05-07T08:48:53;102173.66;;;11.88;85.86
58843;BME280;44614;54.356;10.100;2023-05-07T08:51:20;102162.47;;;11.96;81.95
58843;BME280;44614;54.356;10.100;2023-05-07T08:53:47;102165.69;;;12.00;84.38
58843;BME280;44614;54.356;10.100;2023-05-07T08:56:14;102161.97;;;12.14;83.45
58843;BME280;44614;54.356;10.100;2023-05-07T08:58:41;102179.44;;;12.28;84.62
58843;BME280;44614;54.356;10.100;2023-05-07T09:01:13;102179.50;;;12.06;84.82
58843;BME280;44614;54.356;10.100;2023-05-07T09:03:39;102181.22;;;12.07;86.75
58843;BME280;44614;54.356;10.100;2023-05-07T09:06:05;102185.75;;;12.22;82.92
58843;BME280;44614;54.356;10.100;2023-05-07T09:08:32;102190.00;;;12.24;83.69
58843;BME280;44614;54.356;10.100;2023-05-07T09:10:59;102182.59;;;12.25;84.33
58843;BME280;44614;54.356;10.100;2023-05-07T09:13:25;102202.03;;;12.16;83.08
58843;BME280;44614;54.356;10.100;2023-05-07T09:15:50;102197.69;;;11.79;80.60
58843;BME280;44614;54.356;10.100;2023-05-07T09:18:16;102198.59;;;11.65;83.37
58843;BME280;44614;54.356;10.100;2023-05-07T09:20:41;102206.66;;;11.66;83.75
58843;BME280;44614;54.356;10.100;2023-05-07T09:23:07;102209.53;;;11.80;83.52
58843;BME280;44614;54.356;10.100;2023-05-07T09:25:34;102216.88;;;11.94;82.05
58843;BME280;44614;54.356;10.100;2023-05-07T09:28:00;102202.91;;;12.24;78.42
58843;BME280;44614;54.356;10.100;2023-05-07T09:30:29;102195.06;;;12.55;82.18
58843;BME280;44614;54.356;10.100;2023-05-07T09:32:57;102194.13;;;12.76;83.73
58843;BME280;44614;54.356;10.100;2023-05-07T09:35:23;102198.00;;;12.88;77.95
58843;BME280;44614;54.356;10.100;2023-05-07T09:37:56;102196.31;;;12.87;81.80
58843;BME280;44614;54.356;10.100;2023-05-07T09:40:26;102182.59;;;12.59;78.26
58843;BME280;44614;54.356;10.100;2023-05-07T09:42:52;102202.91;;;12.52;80.54
58843;BME280;44614;54.356;10.100;2023-05-07T09:45:25;102205.00;;;12.50;76.78
58843;BME280;44614;54.356;10.100;2023-05-07T09:47:54;102198.75;;;12.34;79.95
58843;BME280;44614;54.356;10.100;2023-05-07T09:50:22;102169.78;;;12.10;82.62
58843;BME280;44614;54.356;10.100;2023-05-07T09:52:51;102203.22;;;12.35;79.98
58843;BME280;44614;54.356;10.100;2023-05-07T09:55:17;102180.25;;;12.22;81.51
58843;BME280;44614;54.356;10.100;2023-05-07T09:57:44;102188.81;;;12.33;82.50
58843;BME280;44614;54.356;10.100;2023-05-07T10:00:12;102181.06;;;12.50;81.62
58843;BME280;44614;54.356;10.100;2023-05-07T10:02:39;102189.38;;;12.57;79.56
58843;BME280;44614;54.356;10.100;2023-05-07T10:05:12;102180.81;;;12.93;80.57
58843;BME280;44614;54.356;10.100;2023-05-07T10:07:40;102174.00;;;13.37;80.87
58843;BME280;44614;54.356;10.100;2023-05-07T10:10:06;102166.63;;;13.71;76.86
58843;BME280;44614;54.356;10.100;2023-05-07T10:12:32;102193.56;;;13.88;77.50
58843;BME280;44614;54.356;10.100;2023-05-07T10:15:05;102176.56;;;13.85;74.45
58843;BME280;44614;54.356;10.100;2023-05-07T10:17:31;102180.41;;;14.04;73.21
58843;BME280;44614;54.356;10.100;2023-05-07T10:19:57;102181.88;;;14.20;75.77
58843;BME280;44614;54.356;10.100;2023-05-07T10:22:23;102188.88;;;14.22;72.26
58843;BME280;44614;54.356;10.100;2023-05-07T10:24:52;102192.91;;;14.26;77.60
58843;BME280;44614;54.356;10.100;2023-05-07T10:27:21;102170.34;;;14.49;78.37
58843;BME280;44614;54.356;10.100;2023-05-07T10:35:02;102180.81;;;14.27;72.82
58843;BME280;44614;54.356;10.100;2023-05-07T10:37:29;102179.69;;;14.42;75.85
58843;BME280;44614;54.356;10.100;2023-05-07T10:39:55;102180.88;;;14.92;77.20
58843;BME280;44614;54.356;10.100;2023-05-07T10:42:22;102173.56;;;15.04;72.45
58843;BME280;44614;54.356;10.100;2023-05-07T10:44:47;102168.88;;;15.05;69.33
58843;BME280;44614;54.356;10.100;2023-05-07T10:47:15;102179.41;;;14.83;71.86
58843;BME280;44614;54.356;10.100;2023-05-07T10:52:14;102175.97;;;14.87;75.17
58843;BME280;44614;54.356;10.100;2023-05-07T10:54:41;102180.72;;;15.19;75.63
58843;BME280;44614;54.356;10.100;2023-05-07T10:59:57;102161.97;;;14.82;74.45
58843;BME280;44614;54.356;10.100;2023-05-07T11:02:22;102156.03;;;14.72;72.04
58843;BME280;44614;54.356;10.100;2023-05-07T11:05:19;102177.22;;;14.92;72.54
58843;BME280;44614;54.356;10.100;2023-05-07T11:08:03;102153.25;;;15.17;68.53
58843;BME280;44614;54.356;10.100;2023-05-07T11:13:13;102155.56;;;14.89;74.37
58843;BME280;44614;54.356;10.100;2023-05-07T11:15:40;102169.22;;;14.77;64.04
58843;BME280;44614;54.356;10.100;2023-05-07T11:18:07;102166.16;;;14.92;69.12
58843;BME280;44614;54.356;10.100;2023-05-07T11:26:00;102167.50;;;14.82;69.82
58843;BME280;44614;54.356;10.100;2023-05-07T11:28:28;102156.44;;;14.76;71.63
58843;BME280;44614;54.356;10.100;2023-05-07T11:30:53;102149.41;;;14.80;72.64
58843;BME280;44614;54.356;10.100;2023-05-07T11:33:19;102160.31;;;15.13;67.31
58843;BME280;44614;54.356;10.100;2023-05-07T11:35:45;102145.75;;;14.93;70.60
58843;BME280;44614;54.356;10.100;2023-05-07T11:38:11;102154.88;;;14.93;70.98
58843;BME280;44614;54.356;10.100;2023-05-07T11:40:58;102169.22;;;14.77;62.65
58843;BME280;44614;54.356;10.100;2023-05-07T11:43:27;102161.97;;;14.76;71.25
58843;BME280;44614;54.356;10.100;2023-05-07T11:45:53;102148.31;;;14.87;63.84
58843;BME280;44614;54.356;10.100;2023-05-07T11:48:20;102165.06;;;14.99;69.31
58843;BME280;44614;54.356;10.100;2023-05-07T11:53:27;102159.31;;;15.01;70.33
58843;BME280;44614;54.356;10.100;2023-05-07T11:55:55;102152.78;;;15.27;67.22
58843;BME280;44614;54.356;10.100;2023-05-07T11:58:22;102147.09;;;15.78;69.45
58843;BME280;44614;54.356;10.100;2023-05-07T12:00:51;102120.03;;;16.24;66.91
58843;BME280;44614;54.356;10.100;2023-05-07T12:03:16;102136.50;;;16.55;67.01
58843;BME280;44614;54.356;10.100;2023-05-07T12:05:43;102151.53;;;16.48;60.99
58843;BME280;44614;54.356;10.100;2023-05-07T12:08:14;102133.72;;;16.19;62.33
58843;BME280;44614;54.356;10.100;2023-05-07T12:10:43;102142.91;;;16.38;63.66
58843;BME280;44614;54.356;10.100;2023-05-07T12:15:42;102134.75;;;16.79;65.89
58843;BME280;44614;54.356;10.100;2023-05-07T12:18:07;102134.19;;;16.89;58.01
58843;BME280;44614;54.356;10.100;2023-05-07T12:20:35;102144.97;;;16.97;60.71
58843;BME280;44614;54.356;10.100;2023-05-07T12:23:01;102140.69;;;16.65;60.37
58843;BME280;44614;54.356;10.100;2023-05-07T12:25:26;102132.41;;;16.21;63.50
58843;BME280;44614;54.356;10.100;2023-05-07T12:27:54;102137.72;;;16.04;64.56
58843;BME280;44614;54.356;10.100;2023-05-07T12:30:20;102129.81;;;16.26;65.65
58843;BME280;44614;54.356;10.100;2023-05-07T12:32:45;102124.03;;;16.46;64.98
58843;BME280;44614;54.356;10.100;2023-05-07T12:35:11;102129.72;;;16.33;59.86
58843;BME280;44614;54.356;10.100;2023-05-07T12:37:36;102130.81;;;16.32;64.65
58843;BME280;44614;54.356;10.100;2023-05-07T12:40:09;102132.81;;;16.43;65.41
58843;BME280;44614;54.356;10.100;2023-05-07T12:42:36;102135.91;;;16.53;62.56
58843;BME280;44614;54.356;10.100;2023-05-07T12:45:13;102117.19;;;16.30;57.75
58843;BME280;44614;54.356;10.100;2023-05-07T12:47:44;102142.13;;;16.30;58.66
58843;BME280;44614;54.356;10.100;2023-05-07T12:50:10;102146.06;;;16.41;63.14
58843;BME280;44614;54.356;10.100;2023-05-07T12:52:36;102120.03;;;16.42;62.07
58843;BME280;44614;54.356;10.100;2023-05-07T12:55:06;102143.50;;;16.40;60.67
58843;BME280;44614;54.356;10.100;2023-05-07T12:57:38;102112.38;;;16.01;59.54
58843;BME280;44614;54.356;10.100;2023-05-07T13:00:05;102141.53;;;16.47;63.21
58843;BME280;44614;54.356;10.100;2023-05-07T13:02:34;102143.53;;;16.95;60.98